Airfield :
LOGIN :

Register | Disclaimer

   EN    FR    IT 

 










Legend :    VFR   Marginal VFR   IFR   Intensive IFR   Very Intensive IFR
Visi :
Ceiling :
>= 8 km
>= 3000ft
5 to 8 km
1000 to 3000 ft
1500m to 5 km
500 to 1000 ft
800 to 1500m
200 to 500 ft
< 800m
< 200 ft
Symbols :   Thunderstorms  Fog  Heavy snow  Heavy precipitations  Wind > 20 kt
SIGMETs :     Misc.  Thunderstorms  Icing  Turbulence  Mountain Waves  Volcanic Ashes






- Airport Elevation : 681 ft
- IATA code : LBA


EGNM - Leeds Bradford

CURRENT METAR :
  • 200120Z 22015G25KT 180V240 9999 -DZ BKN008 08/07 Q1003

EXPIRED METARs :
  • 200050Z 22011G21KT 9999 -DZ BKN008 08/07 Q1003
  • 192350Z 21014G24KT 9999 -DZ BKN008 08/07 Q1004
  • 192320Z 21012KT 8000 -DZ BKN005 08/07 Q1004

TAF TAF EGNM
Valid from the 20 at 00:00 until the 21 at 00:00 UTC


192301Z 2000/2024 21012KT 9999 FEW008 SCT022
TEMPO 2000/2010 23018G30KT 6000 -RA BKN006
PROB30
TEMPO 2000/2010 4000 RA
BECMG 2010/2013 28018G28KT
PROB30
TEMPO 2010/2013 25027G40KT 2500 +RA RASN BKN003
PROB30
TEMPO 2013/2022 4000 SHRA -SHRASN
ATIS : +44 113 250 9696 (x2489)



MET'MAP, your aeronautical weather chart ! - Copyright ORBIFLY December 2007 - Disclaimer

ORBIFLY MET'MAP TEAM :

Programming & Development : Alexandra Zaïnal
Concept & original design : Baudouin d'Aumeries
Assistance for programming : Marc-Olivier Méhu
Technical & hardware support : Manuel Goepfert

Contact : metmap@orbifly.com




SOURCES & CREDITS :

   NOAA